Terminal Aerodrome Forecast
Issued by NWS Cleveland, OH

Home | Current Version | Previous Version | Text Only | Print | Product List | Glossary On
Versions: 1 2 3 4 5 6 7 8 9 10 11 12 13 14 15 16 17
000
FTUS41 KCLE 020500
TAFMFD
TAF
KMFD 020537Z 0206/0306 00000KT P6SM SCT100
     FM020800 00000KT 5SM BR SCT040 BKN120
     FM021000 00000KT 2SM BR SCT010
     FM021600 03004KT P6SM VCTS SCT040CB BKN060=

USA.gov is the U.S. government's official web portal to all federal, state and local government web resources and services.